Share

Willow Lake, SD

04:19 CDT le 25 avril 2014 (GMT -0500)
Huron Regional (KHON) Alt. 1289 ft | 44.39 °N, 98.23 °W | Change Station

Current weather conditions updated 24 minutes ago

Partly Cloudy
Partiellement nuageux
39 ° F
Paraît 33 ° F
N
8
Vent Variable Vent de Ouest
Lever du soleil 6:30 AM
Coucher du soleil 8:28 PM
Lune Lune descendante

Aujourd’hui il est prévu de faire pratiquement la même température qu’hier.

Pression 29.81 pouce
Visibilité 10.0 Miles terrestres
Nuages Peu 12000 ft
Refroidissement éolien 33 ° F
Point de rosée 28 ° F
Humidité 65%
Précipitations 0.00 pouce
Profondeur de la couche neigeuse Non disponible.
UV 0 sur 16
Pollen 10.70 sur 12
Qualité de l'air Non disponible.
Flu Activity Sporadic
METAR KHON 250855Z AUTO 28007KT 10SM FEW120 04/M02 A2980 RMK AO2 SLP092 T00391022 53013

More Conditions Fewer Conditions

Pression 29.81 pouce
Visibilité 10.0 Miles terrestres
Nuages Peu 12000 ft
Refroidissement éolien 33 ° F
Point de rosée 28 ° F
Humidité 65%
Précipitations 0.00 pouce
Profondeur de la couche neigeuse Non disponible.
UV 0 sur 16
Pollen 10.70 sur 12
Qualité de l'air Non disponible.
Flu Activity Sporadic
METAR KHON 250855Z AUTO 28007KT 10SM FEW120 04/M02 A2980 RMK AO2 SLP092 T00391022 53013

More Conditions Fewer Conditions

10-Day Weather Forecast

Almanac

Astronomie

Apr. 25, 2014 Lever Coucher
Temps réel 06:30 CDT 20:28 CDT
Crépuscule civil 05:58 CDT 20:59 CDT
Crépuscule nautique 05:20 CDT 21:38 CDT
Crépuscule astronomique 04:38 CDT 22:21 CDT
Lune 04:29 CDT 16:43 CDT
Durée de lumière visible 15h 01m
Longueur du jour
13h 58m
Tomorrow will be 2m 49s longer.
Lune descendante, 18% of the Moon is Illuminated
Aujourd'hui
Lune descendante
avr 29
Nouveau
mai 6
Premier quartier
mai 14
Pleine lune
mai 21
Dernier quartier

Extrêmes aujourd'hui

State Highs State Lows

Community

  • Storm Clouds & Sunset
    Storm Clouds & Sunset
  • Deer in evening light
    Deer in evening light
  • Critter
    Critter
  • Jone Runs Falls
    Jone Runs Falls
  • Easter in Shenandoah National Park
    Easter in Shenandoah National Park

WunderPhotos

Upload Photos

1,704,874 Photos téléchargées !

WunderBlogs® & News

Nearby

Épaisseur de neige

Station Depth Altitude
Blind Park 7 in 6890 ft

Températures des eaux côtières

Lieu Température
Aucun rapport de station

Activité sismique

Ville Distance Mag. Time & Date
No recent earthquake activity has been reported nearby.
Minimum magnitude displayed is 2.5.

Stations météo à proximité

Emplacement de la station Température Refroidissement éolien Point de rosée Humidité Vent Precip. Alt. Mise à jour Type
NonFedAWOS DESMET , De Smet, SD 37 ° F 37 ° F 27 ° F 65% Nord  à  0 mph 0.00 pouce / hr 1729 ft 2:55 AM CDT MADIS

Show More Stations Show Fewer Stations

What do you think?

We're not finished. Please let us know what you like, what you don't like, and what you are still missing.